Upstream stations:
Downstream station:
SHEF ID: CLVO2 Canadian River at Calvin, OK
STATION TYPE:
Regulating: Stage = 17.00, Flow = 48538
PRECIP STAGE RIV-FLOW BAT-LOAD
in ft cfs volt
Ccp-Rev Ccp-Rev Ccp-Rev Ccp-Rev
(US/Central)
09/29 00:00 0.00 5.76 322 12.97
09/29 01:00 0.00 5.76 322 12.97
09/29 02:00 0.00 5.76 322 12.97
09/29 03:00 0.00 5.76 322 12.97
09/29 04:00 0.00 5.76 322 12.89
09/29 05:00 0.00 5.76 322 12.89
09/29 06:00 0.00 5.76 322 12.89
09/29 07:00 0.00 5.77 326 12.89
09/29 08:00 0.00 5.77 326 12.81
09/29 09:00 0.00 5.79 333 12.81
09/29 10:00 0.00 5.78 329 12.81
09/29 11:00 0.00 5.76 322 13.05
09/29 12:00 0.00 5.81 340 13.68
09/29 13:00 0.00 5.80 336 14.00
09/29 14:00 0.00 5.76 322 13.92
09/29 15:00 0.00 5.77 326 13.76
09/29 16:00 0.00 5.76 322 13.68
09/29 17:00 0.00 5.75 319 13.68
09/29 18:00 0.00 5.75 319 13.60
09/29 19:00 0.00 5.75 319 13.37
09/29 20:00 0.00 5.75 319 13.05
09/29 21:00 0.00 5.75 319 13.05
09/29 22:00 0.00 5.76 322 12.97
09/29 23:00 0.00 5.76 322 12.97